sensor_id;sensor_type;location;lat;lon;timestamp;temperature;humidity
13711;DHT22;6927;51.256;9.410;2022-08-30T00:02:12;13.90;99.90
13711;DHT22;6927;51.256;9.410;2022-08-30T00:04:37;13.90;99.90
13711;DHT22;6927;51.256;9.410;2022-08-30T00:07:03;13.80;99.90
13711;DHT22;6927;51.256;9.410;2022-08-30T00:09:30;13.80;99.90
13711;DHT22;6927;51.256;9.410;2022-08-30T00:11:56;13.70;99.90
13711;DHT22;6927;51.256;9.410;2022-08-30T00:14:21;13.70;99.90
13711;DHT22;6927;51.256;9.410;2022-08-30T00:16:47;13.70;99.90
13711;DHT22;6927;51.256;9.410;2022-08-30T00:19:12;13.70;99.90
13711;DHT22;6927;51.256;9.410;2022-08-30T00:21:38;13.70;99.90
13711;DHT22;6927;51.256;9.410;2022-08-30T00:24:05;13.70;99.90
13711;DHT22;6927;51.256;9.410;2022-08-30T00:26:30;13.70;99.90
13711;DHT22;6927;51.256;9.410;2022-08-30T00:28:56;13.70;99.90
13711;DHT22;6927;51.256;9.410;2022-08-30T00:31:21;13.70;99.90
13711;DHT22;6927;51.256;9.410;2022-08-30T00:33:47;13.60;99.90
13711;DHT22;6927;51.256;9.410;2022-08-30T00:36:12;13.60;99.90
13711;DHT22;6927;51.256;9.410;2022-08-30T00:38:38;13.50;99.90
13711;DHT22;6927;51.256;9.410;2022-08-30T00:41:03;13.50;99.90
13711;DHT22;6927;51.256;9.410;2022-08-30T00:43:31;13.50;99.90
13711;DHT22;6927;51.256;9.410;2022-08-30T00:45:58;13.50;99.90
13711;DHT22;6927;51.256;9.410;2022-08-30T00:48:24;13.50;99.90
13711;DHT22;6927;51.256;9.410;2022-08-30T00:51:01;13.50;99.90
13711;DHT22;6927;51.256;9.410;2022-08-30T00:53:31;13.40;99.90
13711;DHT22;6927;51.256;9.410;2022-08-30T00:55:58;13.30;99.90
13711;DHT22;6927;51.256;9.410;2022-08-30T00:58:30;13.20;99.90
13711;DHT22;6927;51.256;9.410;2022-08-30T01:00:57;13.20;99.90
13711;DHT22;6927;51.256;9.410;2022-08-30T01:03:24;13.20;99.90
13711;DHT22;6927;51.256;9.410;2022-08-30T01:05:51;13.20;99.90
13711;DHT22;6927;51.256;9.410;2022-08-30T01:08:18;13.20;99.90
13711;DHT22;6927;51.256;9.410;2022-08-30T01:10:46;13.20;99.90
13711;DHT22;6927;51.256;9.410;2022-08-30T01:13:13;13.10;99.90
13711;DHT22;6927;51.256;9.410;2022-08-30T01:15:40;13.20;99.90
13711;DHT22;6927;51.256;9.410;2022-08-30T01:18:06;13.10;99.90
13711;DHT22;6927;51.256;9.410;2022-08-30T01:20:42;13.10;99.90
13711;DHT22;6927;51.256;9.410;2022-08-30T01:23:12;13.10;99.90
13711;DHT22;6927;51.256;9.410;2022-08-30T01:25:39;13.10;99.90
13711;DHT22;6927;51.256;9.410;2022-08-30T01:28:13;13.00;99.90
13711;DHT22;6927;51.256;9.410;2022-08-30T01:30:40;13.00;99.90
13711;DHT22;6927;51.256;9.410;2022-08-30T01:33:08;12.90;99.90
13711;DHT22;6927;51.256;9.410;2022-08-30T01:35:48;12.90;99.90
13711;DHT22;6927;51.256;9.410;2022-08-30T01:38:16;12.90;99.90
13711;DHT22;6927;51.256;9.410;2022-08-30T01:40:42;12.90;99.90
13711;DHT22;6927;51.256;9.410;2022-08-30T01:43:09;12.90;99.90
13711;DHT22;6927;51.256;9.410;2022-08-30T01:45:35;12.90;99.90
13711;DHT22;6927;51.256;9.410;2022-08-30T01:48:01;12.90;99.90
13711;DHT22;6927;51.256;9.410;2022-08-30T01:50:26;12.90;99.90
13711;DHT22;6927;51.256;9.410;2022-08-30T01:52:52;12.90;99.90
13711;DHT22;6927;51.256;9.410;2022-08-30T01:55:17;12.90;99.90
13711;DHT22;6927;51.256;9.410;2022-08-30T01:57:43;12.80;99.90
13711;DHT22;6927;51.256;9.410;2022-08-30T02:00:09;12.80;99.90
13711;DHT22;6927;51.256;9.410;2022-08-30T02:02:35;12.80;99.90
13711;DHT22;6927;51.256;9.410;2022-08-30T02:05:01;12.80;99.90
13711;DHT22;6927;51.256;9.410;2022-08-30T02:07:26;12.80;99.90
13711;DHT22;6927;51.256;9.410;2022-08-30T02:09:53;12.80;99.90
13711;DHT22;6927;51.256;9.410;2022-08-30T02:12:19;12.80;99.90
13711;DHT22;6927;51.256;9.410;2022-08-30T02:14:45;12.80;99.90
13711;DHT22;6927;51.256;9.410;2022-08-30T02:17:12;12.80;99.90
13711;DHT22;6927;51.256;9.410;2022-08-30T02:19:38;12.80;99.90
13711;DHT22;6927;51.256;9.410;2022-08-30T02:22:05;12.80;99.90
13711;DHT22;6927;51.256;9.410;2022-08-30T02:24:30;12.80;99.90
13711;DHT22;6927;51.256;9.410;2022-08-30T02:26:56;12.80;99.90
13711;DHT22;6927;51.256;9.410;2022-08-30T02:29:22;12.80;99.90
13711;DHT22;6927;51.256;9.410;2022-08-30T02:31:47;12.80;99.90
13711;DHT22;6927;51.256;9.410;2022-08-30T02:34:14;12.80;99.90
13711;DHT22;6927;51.256;9.410;2022-08-30T02:36:39;12.70;99.90
13711;DHT22;6927;51.256;9.410;2022-08-30T02:39:06;12.70;99.90
13711;DHT22;6927;51.256;9.410;2022-08-30T02:41:32;12.70;99.90
13711;DHT22;6927;51.256;9.410;2022-08-30T02:43:57;12.70;99.90
13711;DHT22;6927;51.256;9.410;2022-08-30T02:46:25;12.70;99.90
13711;DHT22;6927;51.256;9.410;2022-08-30T02:48:51;12.70;99.90
13711;DHT22;6927;51.256;9.410;2022-08-30T02:51:16;12.70;99.90
13711;DHT22;6927;51.256;9.410;2022-08-30T02:53:42;12.80;99.90
13711;DHT22;6927;51.256;9.410;2022-08-30T02:56:08;12.80;99.90
13711;DHT22;6927;51.256;9.410;2022-08-30T02:58:34;12.80;99.90
13711;DHT22;6927;51.256;9.410;2022-08-30T03:01:00;12.70;99.90
13711;DHT22;6927;51.256;9.410;2022-08-30T03:03:26;12.70;99.90
13711;DHT22;6927;51.256;9.410;2022-08-30T03:05:51;12.70;99.90
13711;DHT22;6927;51.256;9.410;2022-08-30T03:08:17;12.70;99.90
13711;DHT22;6927;51.256;9.410;2022-08-30T03:10:42;12.80;99.90
13711;DHT22;6927;51.256;9.410;2022-08-30T03:13:08;12.80;99.90
13711;DHT22;6927;51.256;9.410;2022-08-30T03:15:34;12.80;99.90
13711;DHT22;6927;51.256;9.410;2022-08-30T03:18:00;12.80;99.90
13711;DHT22;6927;51.256;9.410;2022-08-30T03:20:28;12.80;99.90
13711;DHT22;6927;51.256;9.410;2022-08-30T03:22:53;12.80;99.90
13711;DHT22;6927;51.256;9.410;2022-08-30T03:25:19;12.80;99.90
13711;DHT22;6927;51.256;9.410;2022-08-30T03:27:46;12.80;99.90
13711;DHT22;6927;51.256;9.410;2022-08-30T03:30:12;12.80;99.90
13711;DHT22;6927;51.256;9.410;2022-08-30T03:32:39;12.80;99.90
13711;DHT22;6927;51.256;9.410;2022-08-30T03:35:05;12.70;99.90
13711;DHT22;6927;51.256;9.410;2022-08-30T03:37:32;12.70;99.90
13711;DHT22;6927;51.256;9.410;2022-08-30T03:39:57;12.70;99.90
13711;DHT22;6927;51.256;9.410;2022-08-30T03:42:23;12.60;99.90
13711;DHT22;6927;51.256;9.410;2022-08-30T03:44:48;12.60;99.90
13711;DHT22;6927;51.256;9.410;2022-08-30T03:47:15;12.60;99.90
13711;DHT22;6927;51.256;9.410;2022-08-30T03:49:40;12.60;99.90
13711;DHT22;6927;51.256;9.410;2022-08-30T03:52:06;12.60;99.90
13711;DHT22;6927;51.256;9.410;2022-08-30T03:54:31;12.60;99.90
13711;DHT22;6927;51.256;9.410;2022-08-30T03:56:57;12.60;99.90
13711;DHT22;6927;51.256;9.410;2022-08-30T03:59:23;12.60;99.90
13711;DHT22;6927;51.256;9.410;2022-08-30T04:01:48;12.60;99.90
13711;DHT22;6927;51.256;9.410;2022-08-30T04:04:14;12.60;99.90
13711;DHT22;6927;51.256;9.410;2022-08-30T04:06:40;12.60;99.90
13711;DHT22;6927;51.256;9.410;2022-08-30T04:09:06;12.60;99.90
13711;DHT22;6927;51.256;9.410;2022-08-30T04:11:32;12.50;99.90
13711;DHT22;6927;51.256;9.410;2022-08-30T04:13:57;12.50;99.90
13711;DHT22;6927;51.256;9.410;2022-08-30T04:16:23;12.50;99.90
13711;DHT22;6927;51.256;9.410;2022-08-30T04:18:49;12.50;99.90
13711;DHT22;6927;51.256;9.410;2022-08-30T04:21:15;12.50;99.90
13711;DHT22;6927;51.256;9.410;2022-08-30T04:23:41;12.50;99.90
13711;DHT22;6927;51.256;9.410;2022-08-30T04:26:08;12.40;99.90
13711;DHT22;6927;51.256;9.410;2022-08-30T04:28:33;12.40;99.90
13711;DHT22;6927;51.256;9.410;2022-08-30T04:31:05;12.40;99.90
13711;DHT22;6927;51.256;9.410;2022-08-30T04:33:33;12.40;99.90
13711;DHT22;6927;51.256;9.410;2022-08-30T04:36:01;12.40;99.90
13711;DHT22;6927;51.256;9.410;2022-08-30T04:38:31;12.40;99.90
13711;DHT22;6927;51.256;9.410;2022-08-30T04:40:57;12.40;99.90
13711;DHT22;6927;51.256;9.410;2022-08-30T04:43:23;12.40;99.90
13711;DHT22;6927;51.256;9.410;2022-08-30T04:45:52;12.40;99.90
13711;DHT22;6927;51.256;9.410;2022-08-30T04:48:19;12.40;99.90
13711;DHT22;6927;51.256;9.410;2022-08-30T04:50:45;12.40;99.90
13711;DHT22;6927;51.256;9.410;2022-08-30T04:53:12;12.40;99.90
13711;DHT22;6927;51.256;9.410;2022-08-30T04:55:39;12.40;99.90
13711;DHT22;6927;51.256;9.410;2022-08-30T04:58:05;12.40;99.90
13711;DHT22;6927;51.256;9.410;2022-08-30T05:00:31;12.40;99.90
13711;DHT22;6927;51.256;9.410;2022-08-30T05:02:57;12.40;99.90
13711;DHT22;6927;51.256;9.410;2022-08-30T05:05:22;12.50;99.90
13711;DHT22;6927;51.256;9.410;2022-08-30T05:08:12;12.50;99.90
13711;DHT22;6927;51.256;9.410;2022-08-30T05:10:43;12.60;99.90
13711;DHT22;6927;51.256;9.410;2022-08-30T05:13:10;12.60;99.90
13711;DHT22;6927;51.256;9.410;2022-08-30T05:15:36;12.60;99.90
13711;DHT22;6927;51.256;9.410;2022-08-30T05:18:03;12.70;99.90
13711;DHT22;6927;51.256;9.410;2022-08-30T05:20:29;12.70;99.90
13711;DHT22;6927;51.256;9.410;2022-08-30T05:22:55;12.70;99.90
13711;DHT22;6927;51.256;9.410;2022-08-30T05:25:23;12.70;99.90
13711;DHT22;6927;51.256;9.410;2022-08-30T05:27:49;12.70;99.90
13711;DHT22;6927;51.256;9.410;2022-08-30T05:30:15;12.80;99.90
13711;DHT22;6927;51.256;9.410;2022-08-30T05:32:41;12.80;99.90
13711;DHT22;6927;51.256;9.410;2022-08-30T05:35:09;12.80;99.90
13711;DHT22;6927;51.256;9.410;2022-08-30T05:37:36;12.90;99.90
13711;DHT22;6927;51.256;9.410;2022-08-30T05:40:03;13.00;99.90
13711;DHT22;6927;51.256;9.410;2022-08-30T05:42:29;13.10;99.90
13711;DHT22;6927;51.256;9.410;2022-08-30T05:44:54;13.20;99.90
13711;DHT22;6927;51.256;9.410;2022-08-30T05:47:21;13.40;99.90
13711;DHT22;6927;51.256;9.410;2022-08-30T05:49:47;13.60;99.90
13711;DHT22;6927;51.256;9.410;2022-08-30T05:52:13;13.70;99.90
13711;DHT22;6927;51.256;9.410;2022-08-30T05:54:42;13.80;99.90
13711;DHT22;6927;51.256;9.410;2022-08-30T05:57:10;14.10;99.90
13711;DHT22;6927;51.256;9.410;2022-08-30T05:59:36;14.20;99.90
13711;DHT22;6927;51.256;9.410;2022-08-30T06:02:01;14.40;99.90
13711;DHT22;6927;51.256;9.410;2022-08-30T06:04:27;14.40;99.90
13711;DHT22;6927;51.256;9.410;2022-08-30T06:06:53;14.50;99.90
13711;DHT22;6927;51.256;9.410;2022-08-30T06:09:19;14.60;99.90
13711;DHT22;6927;51.256;9.410;2022-08-30T06:11:45;14.70;99.90
13711;DHT22;6927;51.256;9.410;2022-08-30T06:14:12;14.90;99.90
13711;DHT22;6927;51.256;9.410;2022-08-30T06:16:38;15.10;99.90
13711;DHT22;6927;51.256;9.410;2022-08-30T06:19:05;15.30;99.90
13711;DHT22;6927;51.256;9.410;2022-08-30T06:21:33;15.50;99.90
13711;DHT22;6927;51.256;9.410;2022-08-30T06:24:00;15.60;99.90
13711;DHT22;6927;51.256;9.410;2022-08-30T06:26:27;15.80;99.90
13711;DHT22;6927;51.256;9.410;2022-08-30T06:28:54;15.90;99.90
13711;DHT22;6927;51.256;9.410;2022-08-30T06:31:21;15.90;99.90
13711;DHT22;6927;51.256;9.410;2022-08-30T06:33:48;16.10;99.90
13711;DHT22;6927;51.256;9.410;2022-08-30T06:36:16;16.10;99.90
13711;DHT22;6927;51.256;9.410;2022-08-30T06:38:43;16.00;99.90
13711;DHT22;6927;51.256;9.410;2022-08-30T06:41:14;16.00;99.90
13711;DHT22;6927;51.256;9.410;2022-08-30T06:43:41;16.10;99.90
13711;DHT22;6927;51.256;9.410;2022-08-30T06:46:14;16.40;99.90
13711;DHT22;6927;51.256;9.410;2022-08-30T06:48:40;17.00;99.90
13711;DHT22;6927;51.256;9.410;2022-08-30T06:51:07;17.80;99.90
13711;DHT22;6927;51.256;9.410;2022-08-30T06:53:33;18.60;99.90
13711;DHT22;6927;51.256;9.410;2022-08-30T06:56:02;19.30;99.90
13711;DHT22;6927;51.256;9.410;2022-08-30T06:58:29;19.90;99.90
13711;DHT22;6927;51.256;9.410;2022-08-30T07:00:56;19.80;99.90
13711;DHT22;6927;51.256;9.410;2022-08-30T07:03:21;20.20;99.90
13711;DHT22;6927;51.256;9.410;2022-08-30T07:05:48;20.80;99.90
13711;DHT22;6927;51.256;9.410;2022-08-30T07:08:14;21.00;99.90
13711;DHT22;6927;51.256;9.410;2022-08-30T07:10:40;21.30;99.90
13711;DHT22;6927;51.256;9.410;2022-08-30T07:13:07;21.20;99.90
13711;DHT22;6927;51.256;9.410;2022-08-30T07:15:33;21.80;99.90
13711;DHT22;6927;51.256;9.410;2022-08-30T07:17:59;21.50;99.90
13711;DHT22;6927;51.256;9.410;2022-08-30T07:20:43;20.70;99.90
13711;DHT22;6927;51.256;9.410;2022-08-30T07:23:12;20.40;99.90
13711;DHT22;6927;51.256;9.410;2022-08-30T07:25:38;20.10;99.90
13711;DHT22;6927;51.256;9.410;2022-08-30T07:28:06;19.60;99.90
13711;DHT22;6927;51.256;9.410;2022-08-30T07:30:32;19.40;99.90
13711;DHT22;6927;51.256;9.410;2022-08-30T07:32:58;19.20;99.90
13711;DHT22;6927;51.256;9.410;2022-08-30T07:35:24;18.80;99.90
13711;DHT22;6927;51.256;9.410;2022-08-30T07:37:49;18.50;99.90
13711;DHT22;6927;51.256;9.410;2022-08-30T07:40:15;18.70;99.90
13711;DHT22;6927;51.256;9.410;2022-08-30T07:42:41;19.10;99.90
13711;DHT22;6927;51.256;9.410;2022-08-30T07:45:08;19.40;99.90
13711;DHT22;6927;51.256;9.410;2022-08-30T07:47:33;19.40;99.90
13711;DHT22;6927;51.256;9.410;2022-08-30T07:49:59;19.50;99.90
13711;DHT22;6927;51.256;9.410;2022-08-30T07:52:26;20.30;99.90
13711;DHT22;6927;51.256;9.410;2022-08-30T07:54:53;20.70;99.90
13711;DHT22;6927;51.256;9.410;2022-08-30T07:57:19;21.00;99.90
13711;DHT22;6927;51.256;9.410;2022-08-30T07:59:45;21.40;99.90
13711;DHT22;6927;51.256;9.410;2022-08-30T08:02:10;21.60;99.90
13711;DHT22;6927;51.256;9.410;2022-08-30T08:04:36;21.20;99.90
13711;DHT22;6927;51.256;9.410;2022-08-30T08:07:02;20.90;99.90
13711;DHT22;6927;51.256;9.410;2022-08-30T08:09:27;21.10;99.90
13711;DHT22;6927;51.256;9.410;2022-08-30T08:11:53;22.30;99.90
13711;DHT22;6927;51.256;9.410;2022-08-30T08:14:19;22.10;99.90
13711;DHT22;6927;51.256;9.410;2022-08-30T08:16:46;22.40;99.90
13711;DHT22;6927;51.256;9.410;2022-08-30T08:19:12;23.30;99.90
13711;DHT22;6927;51.256;9.410;2022-08-30T08:21:38;23.40;99.90
13711;DHT22;6927;51.256;9.410;2022-08-30T08:24:04;23.50;99.90
13711;DHT22;6927;51.256;9.410;2022-08-30T08:26:32;23.50;99.90
13711;DHT22;6927;51.256;9.410;2022-08-30T08:28:57;23.60;99.90
13711;DHT22;6927;51.256;9.410;2022-08-30T08:31:27;23.70;99.90
13711;DHT22;6927;51.256;9.410;2022-08-30T08:33:56;23.20;99.90
13711;DHT22;6927;51.256;9.410;2022-08-30T08:36:24;22.90;99.90
13711;DHT22;6927;51.256;9.410;2022-08-30T08:38:51;22.60;99.90
13711;DHT22;6927;51.256;9.410;2022-08-30T08:44:12;22.40;99.90
13711;DHT22;6927;51.256;9.410;2022-08-30T08:46:43;22.80;99.90
13711;DHT22;6927;51.256;9.410;2022-08-30T08:49:12;23.50;99.90
13711;DHT22;6927;51.256;9.410;2022-08-30T08:51:38;23.10;99.90
13711;DHT22;6927;51.256;9.410;2022-08-30T08:54:43;23.20;99.90
13711;DHT22;6927;51.256;9.410;2022-08-30T08:57:10;23.90;99.90
13711;DHT22;6927;51.256;9.410;2022-08-30T08:59:37;23.80;99.90
13711;DHT22;6927;51.256;9.410;2022-08-30T09:04:45;24.80;99.90
13711;DHT22;6927;51.256;9.410;2022-08-30T09:07:20;24.10;99.90
13711;DHT22;6927;51.256;9.410;2022-08-30T09:09:47;24.20;99.90
13711;DHT22;6927;51.256;9.410;2022-08-30T09:12:13;24.20;99.90
13711;DHT22;6927;51.256;9.410;2022-08-30T09:14:42;24.90;99.90
13711;DHT22;6927;51.256;9.410;2022-08-30T09:17:10;24.80;99.90
13711;DHT22;6927;51.256;9.410;2022-08-30T09:19:40;24.40;99.90
13711;DHT22;6927;51.256;9.410;2022-08-30T09:22:20;24.90;99.90
13711;DHT22;6927;51.256;9.410;2022-08-30T09:24:50;25.30;99.90
13711;DHT22;6927;51.256;9.410;2022-08-30T09:27:29;25.10;99.90
13711;DHT22;6927;51.256;9.410;2022-08-30T09:30:02;25.30;99.90
13711;DHT22;6927;51.256;9.410;2022-08-30T09:32:31;26.00;99.90
13711;DHT22;6927;51.256;9.410;2022-08-30T09:34:58;26.60;99.90
13711;DHT22;6927;51.256;9.410;2022-08-30T09:38:08;26.70;99.90
13711;DHT22;6927;51.256;9.410;2022-08-30T09:40:21;26.80;99.90
13711;DHT22;6927;51.256;9.410;2022-08-30T09:43:04;27.50;99.90
13711;DHT22;6927;51.256;9.410;2022-08-30T09:45:34;27.10;99.90
13711;DHT22;6927;51.256;9.410;2022-08-30T09:50:45;27.40;99.90
13711;DHT22;6927;51.256;9.410;2022-08-30T09:53:16;26.90;99.90
13711;DHT22;6927;51.256;9.410;2022-08-30T09:58:59;27.40;99.90
13711;DHT22;6927;51.256;9.410;2022-08-30T10:01:31;27.70;99.90
13711;DHT22;6927;51.256;9.410;2022-08-30T10:04:09;27.80;99.90
13711;DHT22;6927;51.256;9.410;2022-08-30T10:09:41;28.40;99.90
13711;DHT22;6927;51.256;9.410;2022-08-30T10:12:31;28.50;99.90
13711;DHT22;6927;51.256;9.410;2022-08-30T10:15:31;27.90;99.90
13711;DHT22;6927;51.256;9.410;2022-08-30T10:21:00;27.90;99.90
13711;DHT22;6927;51.256;9.410;2022-08-30T10:23:45;28.10;99.90
13711;DHT22;6927;51.256;9.410;2022-08-30T10:28:55;27.50;99.90
13711;DHT22;6927;51.256;9.410;2022-08-30T10:31:48;27.50;99.90
13711;DHT22;6927;51.256;9.410;2022-08-30T10:34:37;28.90;99.90
13711;DHT22;6927;51.256;9.410;2022-08-30T10:39:42;26.80;99.90
13711;DHT22;6927;51.256;9.410;2022-08-30T10:42:31;25.90;99.90
13711;DHT22;6927;51.256;9.410;2022-08-30T10:45:09;25.40;99.90
13711;DHT22;6927;51.256;9.410;2022-08-30T10:48:02;25.10;99.90
13711;DHT22;6927;51.256;9.410;2022-08-30T10:50:33;24.70;99.90
13711;DHT22;6927;51.256;9.410;2022-08-30T10:53:06;24.40;99.90
13711;DHT22;6927;51.256;9.410;2022-08-30T10:55:36;24.40;99.90
13711;DHT22;6927;51.256;9.410;2022-08-30T10:58:09;24.10;99.90
13711;DHT22;6927;51.256;9.410;2022-08-30T11:00:45;24.00;99.90
13711;DHT22;6927;51.256;9.410;2022-08-30T11:06:20;25.30;99.90
13711;DHT22;6927;51.256;9.410;2022-08-30T11:11:40;25.30;99.90
13711;DHT22;6927;51.256;9.410;2022-08-30T11:14:09;25.00;99.90
13711;DHT22;6927;51.256;9.410;2022-08-30T11:16:40;24.80;99.90
13711;DHT22;6927;51.256;9.410;2022-08-30T11:21:50;25.70;99.90
13711;DHT22;6927;51.256;9.410;2022-08-30T11:24:17;26.00;99.90
13711;DHT22;6927;51.256;9.410;2022-08-30T11:29:43;27.40;99.90
13711;DHT22;6927;51.256;9.410;2022-08-30T11:44:48;28.40;99.90
13711;DHT22;6927;51.256;9.410;2022-08-30T11:47:44;28.10;99.90
13711;DHT22;6927;51.256;9.410;2022-08-30T11:50:15;28.40;99.90
13711;DHT22;6927;51.256;9.410;2022-08-30T11:55:42;30.40;99.90
13711;DHT22;6927;51.256;9.410;2022-08-30T12:01:32;31.70;99.90
13711;DHT22;6927;51.256;9.410;2022-08-30T12:06:54;30.70;99.90
13711;DHT22;6927;51.256;9.410;2022-08-30T12:14:48;30.40;99.90
13711;DHT22;6927;51.256;9.410;2022-08-30T12:17:26;30.60;99.90
13711;DHT22;6927;51.256;9.410;2022-08-30T12:20:18;30.30;99.90
13711;DHT22;6927;51.256;9.410;2022-08-30T12:22:44;28.60;99.90
13711;DHT22;6927;51.256;9.410;2022-08-30T12:25:31;28.00;99.90
13711;DHT22;6927;51.256;9.410;2022-08-30T12:28:28;27.30;99.90
13711;DHT22;6927;51.256;9.410;2022-08-30T12:30:53;26.80;99.90
13711;DHT22;6927;51.256;9.410;2022-08-30T12:33:29;26.60;99.90
13711;DHT22;6927;51.256;9.410;2022-08-30T12:35:58;26.80;99.90
13711;DHT22;6927;51.256;9.410;2022-08-30T12:38:24;26.30;99.90
13711;DHT22;6927;51.256;9.410;2022-08-30T12:41:00;25.80;99.90
13711;DHT22;6927;51.256;9.410;2022-08-30T12:43:36;25.70;99.90
13711;DHT22;6927;51.256;9.410;2022-08-30T12:46:05;25.70;99.90
13711;DHT22;6927;51.256;9.410;2022-08-30T12:48:37;25.80;99.90
13711;DHT22;6927;51.256;9.410;2022-08-30T12:51:04;26.10;99.90
13711;DHT22;6927;51.256;9.410;2022-08-30T12:53:38;25.70;99.90
13711;DHT22;6927;51.256;9.410;2022-08-30T12:56:15;25.70;99.90
13711;DHT22;6927;51.256;9.410;2022-08-30T13:01:28;25.00;99.90
13711;DHT22;6927;51.256;9.410;2022-08-30T13:06:49;24.60;99.90
13711;DHT22;6927;51.256;9.410;2022-08-30T13:09:25;24.80;99.90
13711;DHT22;6927;51.256;9.410;2022-08-30T13:11:52;25.00;99.90
13711;DHT22;6927;51.256;9.410;2022-08-30T13:17:21;25.30;99.90
13711;DHT22;6927;51.256;9.410;2022-08-30T13:22:34;25.80;99.90
13711;DHT22;6927;51.256;9.410;2022-08-30T13:25:00;25.90;99.90
13711;DHT22;6927;51.256;9.410;2022-08-30T13:27:27;26.00;99.90
13711;DHT22;6927;51.256;9.410;2022-08-30T13:29:53;25.90;99.90
13711;DHT22;6927;51.256;9.410;2022-08-30T13:32:20;26.10;99.90
13711;DHT22;6927;51.256;9.410;2022-08-30T13:34:45;26.30;99.90
13711;DHT22;6927;51.256;9.410;2022-08-30T13:37:17;26.30;99.90
13711;DHT22;6927;51.256;9.410;2022-08-30T13:39:44;26.20;99.90
13711;DHT22;6927;51.256;9.410;2022-08-30T13:42:10;26.10;99.90
13711;DHT22;6927;51.256;9.410;2022-08-30T13:44:35;26.10;99.90
13711;DHT22;6927;51.256;9.410;2022-08-30T13:47:01;26.20;99.90
13711;DHT22;6927;51.256;9.410;2022-08-30T13:49:30;26.10;99.90
13711;DHT22;6927;51.256;9.410;2022-08-30T13:51:56;26.00;99.90
13711;DHT22;6927;51.256;9.410;2022-08-30T13:54:22;26.00;99.90
13711;DHT22;6927;51.256;9.410;2022-08-30T13:56:50;25.90;99.90
13711;DHT22;6927;51.256;9.410;2022-08-30T13:59:16;25.80;99.90
13711;DHT22;6927;51.256;9.410;2022-08-30T14:01:42;26.30;99.90
13711;DHT22;6927;51.256;9.410;2022-08-30T14:04:08;27.30;99.90
13711;DHT22;6927;51.256;9.410;2022-08-30T14:06:33;28.50;99.90
13711;DHT22;6927;51.256;9.410;2022-08-30T14:08:59;29.60;99.90
13711;DHT22;6927;51.256;9.410;2022-08-30T14:11:24;30.60;99.90
13711;DHT22;6927;51.256;9.410;2022-08-30T14:13:51;31.00;99.90
13711;DHT22;6927;51.256;9.410;2022-08-30T14:16:16;30.60;99.90
13711;DHT22;6927;51.256;9.410;2022-08-30T14:18:42;29.60;99.90
13711;DHT22;6927;51.256;9.410;2022-08-30T14:21:07;29.40;99.90
13711;DHT22;6927;51.256;9.410;2022-08-30T14:23:33;29.20;99.90
13711;DHT22;6927;51.256;9.410;2022-08-30T14:26:00;28.40;99.90
13711;DHT22;6927;51.256;9.410;2022-08-30T14:28:27;27.70;99.90
13711;DHT22;6927;51.256;9.410;2022-08-30T14:30:55;28.30;99.90
13711;DHT22;6927;51.256;9.410;2022-08-30T14:33:21;28.60;99.90
13711;DHT22;6927;51.256;9.410;2022-08-30T14:35:46;29.30;99.90
13711;DHT22;6927;51.256;9.410;2022-08-30T14:38:12;28.80;99.90
13711;DHT22;6927;51.256;9.410;2022-08-30T14:40:37;28.50;99.90
13711;DHT22;6927;51.256;9.410;2022-08-30T14:43:04;28.50;99.90
13711;DHT22;6927;51.256;9.410;2022-08-30T14:45:30;28.10;99.90
13711;DHT22;6927;51.256;9.410;2022-08-30T14:47:56;27.70;99.90
13711;DHT22;6927;51.256;9.410;2022-08-30T14:50:22;27.70;99.90
13711;DHT22;6927;51.256;9.410;2022-08-30T14:52:47;27.50;99.90
13711;DHT22;6927;51.256;9.410;2022-08-30T14:55:13;27.60;99.90
13711;DHT22;6927;51.256;9.410;2022-08-30T14:57:39;27.50;99.90
13711;DHT22;6927;51.256;9.410;2022-08-30T15:00:07;27.30;99.90
13711;DHT22;6927;51.256;9.410;2022-08-30T15:02:34;26.80;99.90
13711;DHT22;6927;51.256;9.410;2022-08-30T15:04:59;26.30;99.90
13711;DHT22;6927;51.256;9.410;2022-08-30T15:07:25;25.80;99.90
13711;DHT22;6927;51.256;9.410;2022-08-30T15:09:50;25.20;99.90
13711;DHT22;6927;51.256;9.410;2022-08-30T15:12:16;25.00;99.90
13711;DHT22;6927;51.256;9.410;2022-08-30T15:14:42;24.90;99.90
13711;DHT22;6927;51.256;9.410;2022-08-30T15:17:07;24.80;99.90
13711;DHT22;6927;51.256;9.410;2022-08-30T15:19:33;25.00;99.90
13711;DHT22;6927;51.256;9.410;2022-08-30T15:22:02;25.20;99.90
13711;DHT22;6927;51.256;9.410;2022-08-30T15:24:28;25.50;99.90
13711;DHT22;6927;51.256;9.410;2022-08-30T15:26:53;25.60;99.90
13711;DHT22;6927;51.256;9.410;2022-08-30T15:29:19;25.50;99.90
13711;DHT22;6927;51.256;9.410;2022-08-30T15:31:46;25.50;99.90
13711;DHT22;6927;51.256;9.410;2022-08-30T15:34:14;25.50;99.90
13711;DHT22;6927;51.256;9.410;2022-08-30T15:36:42;25.70;99.90
13711;DHT22;6927;51.256;9.410;2022-08-30T15:39:08;26.10;99.90
13711;DHT22;6927;51.256;9.410;2022-08-30T15:41:34;25.70;99.90
13711;DHT22;6927;51.256;9.410;2022-08-30T15:44:01;25.50;99.90
13711;DHT22;6927;51.256;9.410;2022-08-30T15:46:28;25.50;99.90
13711;DHT22;6927;51.256;9.410;2022-08-30T15:48:58;25.50;99.90
13711;DHT22;6927;51.256;9.410;2022-08-30T15:51:24;25.60;99.90
13711;DHT22;6927;51.256;9.410;2022-08-30T15:53:51;25.60;99.90
13711;DHT22;6927;51.256;9.410;2022-08-30T15:56:17;25.50;99.90
13711;DHT22;6927;51.256;9.410;2022-08-30T15:58:43;25.70;99.90
13711;DHT22;6927;51.256;9.410;2022-08-30T16:01:09;26.00;99.90
13711;DHT22;6927;51.256;9.410;2022-08-30T16:03:36;25.80;99.90
13711;DHT22;6927;51.256;9.410;2022-08-30T16:06:01;25.50;99.90
13711;DHT22;6927;51.256;9.410;2022-08-30T16:08:28;25.80;99.90
13711;DHT22;6927;51.256;9.410;2022-08-30T16:10:54;25.90;99.90
13711;DHT22;6927;51.256;9.410;2022-08-30T16:13:20;26.20;99.90
13711;DHT22;6927;51.256;9.410;2022-08-30T16:15:45;26.20;99.90
13711;DHT22;6927;51.256;9.410;2022-08-30T16:18:12;25.90;99.90
13711;DHT22;6927;51.256;9.410;2022-08-30T16:20:40;25.70;99.90
13711;DHT22;6927;51.256;9.410;2022-08-30T16:23:07;25.70;99.90
13711;DHT22;6927;51.256;9.410;2022-08-30T16:25:33;26.10;99.90
13711;DHT22;6927;51.256;9.410;2022-08-30T16:27:58;26.00;99.90
13711;DHT22;6927;51.256;9.410;2022-08-30T16:30:24;25.60;99.90
13711;DHT22;6927;51.256;9.410;2022-08-30T16:32:49;25.30;99.90
13711;DHT22;6927;51.256;9.410;2022-08-30T16:35:15;24.90;99.90
13711;DHT22;6927;51.256;9.410;2022-08-30T16:37:41;24.60;99.90
13711;DHT22;6927;51.256;9.410;2022-08-30T16:40:07;24.70;99.90
13711;DHT22;6927;51.256;9.410;2022-08-30T16:42:33;24.90;99.90
13711;DHT22;6927;51.256;9.410;2022-08-30T16:44:58;24.60;99.90
13711;DHT22;6927;51.256;9.410;2022-08-30T16:47:24;24.30;99.90
13711;DHT22;6927;51.256;9.410;2022-08-30T16:49:49;24.20;99.90
13711;DHT22;6927;51.256;9.410;2022-08-30T16:52:15;24.20;99.90
13711;DHT22;6927;51.256;9.410;2022-08-30T16:54:41;24.30;99.90
13711;DHT22;6927;51.256;9.410;2022-08-30T16:57:06;24.30;99.90
13711;DHT22;6927;51.256;9.410;2022-08-30T16:59:32;24.30;99.90
13711;DHT22;6927;51.256;9.410;2022-08-30T17:01:57;24.10;99.90
13711;DHT22;6927;51.256;9.410;2022-08-30T17:04:23;23.90;99.90